sensor_id;sensor_type;location;lat;lon;timestamp;temperature;humidity
7325;DHT22;3703;48.016;7.802;2023-04-24T00:02:04;12.50;99.90
7325;DHT22;3703;48.016;7.802;2023-04-24T00:04:52;12.50;99.90
7325;DHT22;3703;48.016;7.802;2023-04-24T00:10:29;12.40;99.90
7325;DHT22;3703;48.016;7.802;2023-04-24T00:13:17;12.40;99.90
7325;DHT22;3703;48.016;7.802;2023-04-24T00:16:05;12.30;99.90
7325;DHT22;3703;48.016;7.802;2023-04-24T00:18:52;12.70;99.90
7325;DHT22;3703;48.016;7.802;2023-04-24T00:21:42;12.30;99.90
7325;DHT22;3703;48.016;7.802;2023-04-24T00:24:29;12.20;99.90
7325;DHT22;3703;48.016;7.802;2023-04-24T00:27:18;12.30;99.90
7325;DHT22;3703;48.016;7.802;2023-04-24T00:30:07;11.90;99.90
7325;DHT22;3703;48.016;7.802;2023-04-24T00:38:30;12.00;99.90
7325;DHT22;3703;48.016;7.802;2023-04-24T00:41:18;12.20;99.90
7325;DHT22;3703;48.016;7.802;2023-04-24T00:44:08;12.20;99.90
7325;DHT22;3703;48.016;7.802;2023-04-24T00:52:31;11.90;99.90
7325;DHT22;3703;48.016;7.802;2023-04-24T00:55:19;12.10;99.90
7325;DHT22;3703;48.016;7.802;2023-04-24T00:58:06;12.00;99.90
7325;DHT22;3703;48.016;7.802;2023-04-24T01:00:56;12.10;99.90
7325;DHT22;3703;48.016;7.802;2023-04-24T01:03:44;12.10;99.90
7325;DHT22;3703;48.016;7.802;2023-04-24T01:06:31;12.10;99.90
7325;DHT22;3703;48.016;7.802;2023-04-24T01:09:21;12.00;99.90
7325;DHT22;3703;48.016;7.802;2023-04-24T01:12:10;12.00;99.90
7325;DHT22;3703;48.016;7.802;2023-04-24T01:14:57;11.90;99.90
7325;DHT22;3703;48.016;7.802;2023-04-24T01:17:46;12.00;99.90
7325;DHT22;3703;48.016;7.802;2023-04-24T01:20:35;12.50;99.90
7325;DHT22;3703;48.016;7.802;2023-04-24T01:23:27;12.00;99.90
7325;DHT22;3703;48.016;7.802;2023-04-24T01:26:16;12.00;99.90
7325;DHT22;3703;48.016;7.802;2023-04-24T01:29:06;12.00;99.90
7325;DHT22;3703;48.016;7.802;2023-04-24T01:31:53;11.90;99.90
7325;DHT22;3703;48.016;7.802;2023-04-24T01:34:44;12.00;99.90
7325;DHT22;3703;48.016;7.802;2023-04-24T01:37:32;12.00;99.90
7325;DHT22;3703;48.016;7.802;2023-04-24T01:40:21;11.90;99.90
7325;DHT22;3703;48.016;7.802;2023-04-24T01:43:09;11.90;99.90
7325;DHT22;3703;48.016;7.802;2023-04-24T01:45:56;11.90;99.90
7325;DHT22;3703;48.016;7.802;2023-04-24T01:48:45;11.80;99.90
7325;DHT22;3703;48.016;7.802;2023-04-24T01:51:33;11.80;99.90
7325;DHT22;3703;48.016;7.802;2023-04-24T01:54:20;11.80;99.90
7325;DHT22;3703;48.016;7.802;2023-04-24T01:57:09;11.80;99.90
7325;DHT22;3703;48.016;7.802;2023-04-24T01:59:57;11.70;99.90
7325;DHT22;3703;48.016;7.802;2023-04-24T02:02:45;11.70;99.90
7325;DHT22;3703;48.016;7.802;2023-04-24T02:05:32;11.70;99.90
7325;DHT22;3703;48.016;7.802;2023-04-24T02:08:20;11.50;99.90
7325;DHT22;3703;48.016;7.802;2023-04-24T02:11:09;11.80;99.90
7325;DHT22;3703;48.016;7.802;2023-04-24T02:13:58;11.80;99.90
7325;DHT22;3703;48.016;7.802;2023-04-24T02:16:45;11.80;99.90
7325;DHT22;3703;48.016;7.802;2023-04-24T02:19:33;11.70;99.90
7325;DHT22;3703;48.016;7.802;2023-04-24T02:22:20;11.70;99.90
7325;DHT22;3703;48.016;7.802;2023-04-24T02:25:08;11.70;99.90
7325;DHT22;3703;48.016;7.802;2023-04-24T02:27:56;11.70;99.90
7325;DHT22;3703;48.016;7.802;2023-04-24T02:30:45;11.70;99.90
7325;DHT22;3703;48.016;7.802;2023-04-24T02:33:32;11.70;99.90
7325;DHT22;3703;48.016;7.802;2023-04-24T02:36:20;11.70;99.90
7325;DHT22;3703;48.016;7.802;2023-04-24T02:39:07;11.70;99.90
7325;DHT22;3703;48.016;7.802;2023-04-24T02:41:54;11.60;99.90
7325;DHT22;3703;48.016;7.802;2023-04-24T02:44:42;11.70;99.90
7325;DHT22;3703;48.016;7.802;2023-04-24T02:47:31;11.70;99.90
7325;DHT22;3703;48.016;7.802;2023-04-24T02:50:18;11.70;99.90
7325;DHT22;3703;48.016;7.802;2023-04-24T02:53:06;11.80;99.90
7325;DHT22;3703;48.016;7.802;2023-04-24T02:55:53;11.80;99.90
7325;DHT22;3703;48.016;7.802;2023-04-24T02:58:41;11.80;99.90
7325;DHT22;3703;48.016;7.802;2023-04-24T03:01:29;11.80;99.90
7325;DHT22;3703;48.016;7.802;2023-04-24T03:04:18;11.70;99.90
7325;DHT22;3703;48.016;7.802;2023-04-24T03:07:06;11.80;99.90
7325;DHT22;3703;48.016;7.802;2023-04-24T03:09:53;11.70;99.90
7325;DHT22;3703;48.016;7.802;2023-04-24T03:12:41;11.80;99.90
7325;DHT22;3703;48.016;7.802;2023-04-24T03:15:29;11.80;99.90
7325;DHT22;3703;48.016;7.802;2023-04-24T03:18:16;11.80;99.90
7325;DHT22;3703;48.016;7.802;2023-04-24T03:21:06;11.80;99.90
7325;DHT22;3703;48.016;7.802;2023-04-24T03:23:53;11.70;99.90
7325;DHT22;3703;48.016;7.802;2023-04-24T03:26:40;11.80;99.90
7325;DHT22;3703;48.016;7.802;2023-04-24T03:29:28;11.70;99.90
7325;DHT22;3703;48.016;7.802;2023-04-24T03:32:16;11.60;99.90
7325;DHT22;3703;48.016;7.802;2023-04-24T03:35:04;11.60;99.90
7325;DHT22;3703;48.016;7.802;2023-04-24T03:37:53;11.60;99.90
7325;DHT22;3703;48.016;7.802;2023-04-24T03:40:41;11.50;99.90
7325;DHT22;3703;48.016;7.802;2023-04-24T03:43:28;11.50;99.90
7325;DHT22;3703;48.016;7.802;2023-04-24T03:46:16;11.50;99.90
7325;DHT22;3703;48.016;7.802;2023-04-24T03:49:03;11.50;99.90
7325;DHT22;3703;48.016;7.802;2023-04-24T03:51:51;11.50;99.90
7325;DHT22;3703;48.016;7.802;2023-04-24T03:54:40;11.50;99.90
7325;DHT22;3703;48.016;7.802;2023-04-24T03:57:27;11.50;99.90
7325;DHT22;3703;48.016;7.802;2023-04-24T04:00:15;11.40;99.90
7325;DHT22;3703;48.016;7.802;2023-04-24T04:03:04;11.30;99.90
7325;DHT22;3703;48.016;7.802;2023-04-24T04:05:52;11.30;99.90
7325;DHT22;3703;48.016;7.802;2023-04-24T04:08:40;11.20;99.90
7325;DHT22;3703;48.016;7.802;2023-04-24T04:11:29;11.30;99.90
7325;DHT22;3703;48.016;7.802;2023-04-24T04:14:16;11.30;99.90
7325;DHT22;3703;48.016;7.802;2023-04-24T04:17:04;11.40;99.90
7325;DHT22;3703;48.016;7.802;2023-04-24T04:19:51;11.30;99.90
7325;DHT22;3703;48.016;7.802;2023-04-24T04:22:39;11.20;99.90
7325;DHT22;3703;48.016;7.802;2023-04-24T04:25:27;10.90;99.90
7325;DHT22;3703;48.016;7.802;2023-04-24T04:28:16;11.20;99.90
7325;DHT22;3703;48.016;7.802;2023-04-24T04:31:05;11.20;99.90
7325;DHT22;3703;48.016;7.802;2023-04-24T04:33:53;11.20;99.90
7325;DHT22;3703;48.016;7.802;2023-04-24T04:36:41;11.20;99.90
7325;DHT22;3703;48.016;7.802;2023-04-24T04:39:30;11.00;99.90
7325;DHT22;3703;48.016;7.802;2023-04-24T04:42:17;11.10;99.90
7325;DHT22;3703;48.016;7.802;2023-04-24T04:45:08;11.20;99.90
7325;DHT22;3703;48.016;7.802;2023-04-24T04:47:57;11.20;99.90
7325;DHT22;3703;48.016;7.802;2023-04-24T04:50:46;11.20;99.90
7325;DHT22;3703;48.016;7.802;2023-04-24T04:53:34;11.30;99.90
7325;DHT22;3703;48.016;7.802;2023-04-24T04:56:21;11.20;99.90
7325;DHT22;3703;48.016;7.802;2023-04-24T04:59:09;11.30;99.90
7325;DHT22;3703;48.016;7.802;2023-04-24T05:01:58;11.20;99.90
7325;DHT22;3703;48.016;7.802;2023-04-24T05:04:45;11.10;99.90
7325;DHT22;3703;48.016;7.802;2023-04-24T05:07:33;11.20;99.90
7325;DHT22;3703;48.016;7.802;2023-04-24T05:10:21;11.10;99.90
7325;DHT22;3703;48.016;7.802;2023-04-24T05:13:08;11.10;99.90
7325;DHT22;3703;48.016;7.802;2023-04-24T05:15:57;11.10;99.90
7325;DHT22;3703;48.016;7.802;2023-04-24T05:18:46;11.10;99.90
7325;DHT22;3703;48.016;7.802;2023-04-24T05:21:34;11.00;99.90
7325;DHT22;3703;48.016;7.802;2023-04-24T05:24:21;10.90;99.90
7325;DHT22;3703;48.016;7.802;2023-04-24T05:27:08;10.80;99.90
7325;DHT22;3703;48.016;7.802;2023-04-24T05:29:56;10.90;99.90
7325;DHT22;3703;48.016;7.802;2023-04-24T05:32:43;10.90;99.90
7325;DHT22;3703;48.016;7.802;2023-04-24T05:35:32;11.00;99.90
7325;DHT22;3703;48.016;7.802;2023-04-24T05:38:20;11.00;99.90
7325;DHT22;3703;48.016;7.802;2023-04-24T05:41:07;10.90;99.90
7325;DHT22;3703;48.016;7.802;2023-04-24T05:43:55;10.80;99.90
7325;DHT22;3703;48.016;7.802;2023-04-24T05:46:43;10.80;99.90
7325;DHT22;3703;48.016;7.802;2023-04-24T05:49:30;10.70;99.90
7325;DHT22;3703;48.016;7.802;2023-04-24T05:52:19;10.70;99.90
7325;DHT22;3703;48.016;7.802;2023-04-24T05:55:07;10.60;99.90
7325;DHT22;3703;48.016;7.802;2023-04-24T05:57:55;10.70;99.90
7325;DHT22;3703;48.016;7.802;2023-04-24T06:00:42;10.70;99.90
7325;DHT22;3703;48.016;7.802;2023-04-24T06:03:32;10.80;99.90
7325;DHT22;3703;48.016;7.802;2023-04-24T06:06:20;10.70;99.90
7325;DHT22;3703;48.016;7.802;2023-04-24T06:09:09;10.70;99.90
7325;DHT22;3703;48.016;7.802;2023-04-24T06:11:56;10.80;99.90
7325;DHT22;3703;48.016;7.802;2023-04-24T06:14:44;10.80;99.90
7325;DHT22;3703;48.016;7.802;2023-04-24T06:17:32;10.90;99.90
7325;DHT22;3703;48.016;7.802;2023-04-24T06:20:19;10.90;99.90
7325;DHT22;3703;48.016;7.802;2023-04-24T06:23:07;10.90;99.90
7325;DHT22;3703;48.016;7.802;2023-04-24T06:25:56;11.00;99.90
7325;DHT22;3703;48.016;7.802;2023-04-24T06:28:43;10.90;99.90
7325;DHT22;3703;48.016;7.802;2023-04-24T06:31:31;11.00;99.90
7325;DHT22;3703;48.016;7.802;2023-04-24T06:34:22;10.90;99.90
7325;DHT22;3703;48.016;7.802;2023-04-24T06:37:10;11.00;99.90
7325;DHT22;3703;48.016;7.802;2023-04-24T06:39:57;10.80;99.90
7325;DHT22;3703;48.016;7.802;2023-04-24T06:42:46;10.80;99.90
7325;DHT22;3703;48.016;7.802;2023-04-24T06:45:34;10.90;99.90
7325;DHT22;3703;48.016;7.802;2023-04-24T06:48:21;10.80;99.90
7325;DHT22;3703;48.016;7.802;2023-04-24T06:51:09;10.80;99.90
7325;DHT22;3703;48.016;7.802;2023-04-24T06:53:56;10.90;99.90
7325;DHT22;3703;48.016;7.802;2023-04-24T06:56:44;10.80;99.90
7325;DHT22;3703;48.016;7.802;2023-04-24T06:59:35;10.90;99.90
7325;DHT22;3703;48.016;7.802;2023-04-24T07:02:22;11.00;99.90
7325;DHT22;3703;48.016;7.802;2023-04-24T07:05:10;10.90;99.90
7325;DHT22;3703;48.016;7.802;2023-04-24T07:07:58;10.90;99.90
7325;DHT22;3703;48.016;7.802;2023-04-24T07:10:46;10.80;99.90
7325;DHT22;3703;48.016;7.802;2023-04-24T07:13:33;10.90;99.90
7325;DHT22;3703;48.016;7.802;2023-04-24T07:16:22;11.00;99.90
7325;DHT22;3703;48.016;7.802;2023-04-24T07:19:10;11.00;99.90
7325;DHT22;3703;48.016;7.802;2023-04-24T07:21:58;11.10;99.90
7325;DHT22;3703;48.016;7.802;2023-04-24T07:24:45;11.20;99.90
7325;DHT22;3703;48.016;7.802;2023-04-24T07:27:33;11.40;99.90
7325;DHT22;3703;48.016;7.802;2023-04-24T07:30:21;11.60;99.90
7325;DHT22;3703;48.016;7.802;2023-04-24T07:33:10;11.80;99.90
7325;DHT22;3703;48.016;7.802;2023-04-24T07:35:59;11.90;99.90
7325;DHT22;3703;48.016;7.802;2023-04-24T07:38:46;11.90;99.90
7325;DHT22;3703;48.016;7.802;2023-04-24T07:41:34;12.00;99.90
7325;DHT22;3703;48.016;7.802;2023-04-24T07:44:21;12.10;99.90
7325;DHT22;3703;48.016;7.802;2023-04-24T07:47:09;12.30;99.90
7325;DHT22;3703;48.016;7.802;2023-04-24T07:49:57;12.10;99.90
7325;DHT22;3703;48.016;7.802;2023-04-24T07:52:46;12.00;99.90
7325;DHT22;3703;48.016;7.802;2023-04-24T07:55:33;12.20;99.90
7325;DHT22;3703;48.016;7.802;2023-04-24T07:58:21;11.80;99.90
7325;DHT22;3703;48.016;7.802;2023-04-24T08:01:08;11.80;99.90
7325;DHT22;3703;48.016;7.802;2023-04-24T08:03:56;11.90;99.90
7325;DHT22;3703;48.016;7.802;2023-04-24T08:06:45;11.80;99.90
7325;DHT22;3703;48.016;7.802;2023-04-24T08:09:34;11.70;99.90
7325;DHT22;3703;48.016;7.802;2023-04-24T08:12:21;11.70;99.90
7325;DHT22;3703;48.016;7.802;2023-04-24T08:15:09;12.20;99.90
7325;DHT22;3703;48.016;7.802;2023-04-24T08:17:57;12.00;99.90
7325;DHT22;3703;48.016;7.802;2023-04-24T08:20:45;11.80;99.90
7325;DHT22;3703;48.016;7.802;2023-04-24T08:23:34;11.90;99.90
7325;DHT22;3703;48.016;7.802;2023-04-24T08:26:21;12.00;99.90
7325;DHT22;3703;48.016;7.802;2023-04-24T08:29:09;12.10;99.90
7325;DHT22;3703;48.016;7.802;2023-04-24T08:31:56;12.10;99.90
7325;DHT22;3703;48.016;7.802;2023-04-24T08:34:44;12.10;99.90
7325;DHT22;3703;48.016;7.802;2023-04-24T08:37:32;12.10;99.90
7325;DHT22;3703;48.016;7.802;2023-04-24T08:40:26;12.10;99.90
7325;DHT22;3703;48.016;7.802;2023-04-24T08:43:15;12.00;99.90
7325;DHT22;3703;48.016;7.802;2023-04-24T08:46:04;11.90;99.90
7325;DHT22;3703;48.016;7.802;2023-04-24T08:48:52;11.90;99.90
7325;DHT22;3703;48.016;7.802;2023-04-24T08:51:40;12.00;99.90
7325;DHT22;3703;48.016;7.802;2023-04-24T08:54:28;12.20;99.90
7325;DHT22;3703;48.016;7.802;2023-04-24T08:57:17;12.60;99.90
7325;DHT22;3703;48.016;7.802;2023-04-24T09:00:06;13.00;99.90
7325;DHT22;3703;48.016;7.802;2023-04-24T09:02:55;13.20;99.90
7325;DHT22;3703;48.016;7.802;2023-04-24T09:05:44;13.20;99.90
7325;DHT22;3703;48.016;7.802;2023-04-24T09:08:33;13.30;99.90
7325;DHT22;3703;48.016;7.802;2023-04-24T09:11:21;13.20;99.90
7325;DHT22;3703;48.016;7.802;2023-04-24T09:14:11;13.00;99.90
7325;DHT22;3703;48.016;7.802;2023-04-24T09:17:00;13.10;99.90
7325;DHT22;3703;48.016;7.802;2023-04-24T09:19:47;13.00;99.90
7325;DHT22;3703;48.016;7.802;2023-04-24T09:22:35;12.90;99.90
7325;DHT22;3703;48.016;7.802;2023-04-24T09:25:25;12.80;99.90
7325;DHT22;3703;48.016;7.802;2023-04-24T09:28:19;12.80;99.90
7325;DHT22;3703;48.016;7.802;2023-04-24T09:31:15;12.90;99.90
7325;DHT22;3703;48.016;7.802;2023-04-24T09:34:05;13.40;99.90
7325;DHT22;3703;48.016;7.802;2023-04-24T09:36:53;13.10;99.90
7325;DHT22;3703;48.016;7.802;2023-04-24T09:39:42;13.00;99.90
7325;DHT22;3703;48.016;7.802;2023-04-24T09:42:29;12.90;99.90
7325;DHT22;3703;48.016;7.802;2023-04-24T09:45:18;12.80;99.90
7325;DHT22;3703;48.016;7.802;2023-04-24T09:48:09;12.70;99.90
7325;DHT22;3703;48.016;7.802;2023-04-24T09:50:57;12.50;99.90
7325;DHT22;3703;48.016;7.802;2023-04-24T09:53:46;12.50;99.90
7325;DHT22;3703;48.016;7.802;2023-04-24T09:56:33;12.50;99.90
7325;DHT22;3703;48.016;7.802;2023-04-24T09:59:22;12.20;99.90
7325;DHT22;3703;48.016;7.802;2023-04-24T10:02:17;12.60;99.90
7325;DHT22;3703;48.016;7.802;2023-04-24T10:05:08;13.00;99.90
7325;DHT22;3703;48.016;7.802;2023-04-24T10:08:01;13.20;99.90
7325;DHT22;3703;48.016;7.802;2023-04-24T10:10:50;12.90;99.90
7325;DHT22;3703;48.016;7.802;2023-04-24T10:13:37;12.90;99.90
7325;DHT22;3703;48.016;7.802;2023-04-24T10:16:27;12.80;99.90
7325;DHT22;3703;48.016;7.802;2023-04-24T10:19:15;12.80;99.90
7325;DHT22;3703;48.016;7.802;2023-04-24T10:22:06;12.70;99.90
7325;DHT22;3703;48.016;7.802;2023-04-24T10:24:53;12.60;99.90
7325;DHT22;3703;48.016;7.802;2023-04-24T10:27:41;12.60;99.90
7325;DHT22;3703;48.016;7.802;2023-04-24T10:30:30;12.60;99.90
7325;DHT22;3703;48.016;7.802;2023-04-24T10:33:21;12.50;99.90
7325;DHT22;3703;48.016;7.802;2023-04-24T10:38:52;13.20;99.90
7325;DHT22;3703;48.016;7.802;2023-04-24T10:41:42;12.70;99.90
7325;DHT22;3703;48.016;7.802;2023-04-24T10:44:36;12.90;99.90
7325;DHT22;3703;48.016;7.802;2023-04-24T10:47:24;13.10;99.90
7325;DHT22;3703;48.016;7.802;2023-04-24T10:50:12;12.90;99.90
7325;DHT22;3703;48.016;7.802;2023-04-24T10:53:06;12.80;99.90
7325;DHT22;3703;48.016;7.802;2023-04-24T10:56:02;12.90;99.90
7325;DHT22;3703;48.016;7.802;2023-04-24T10:58:51;13.00;99.90
7325;DHT22;3703;48.016;7.802;2023-04-24T11:01:40;13.60;99.90
7325;DHT22;3703;48.016;7.802;2023-04-24T11:04:39;14.20;99.90
7325;DHT22;3703;48.016;7.802;2023-04-24T11:07:28;14.40;99.90
7325;DHT22;3703;48.016;7.802;2023-04-24T11:10:25;13.70;99.90
7325;DHT22;3703;48.016;7.802;2023-04-24T11:13:16;12.30;99.90
7325;DHT22;3703;48.016;7.802;2023-04-24T11:16:14;13.60;99.90
7325;DHT22;3703;48.016;7.802;2023-04-24T11:19:04;13.30;99.90
7325;DHT22;3703;48.016;7.802;2023-04-24T11:21:58;13.20;99.90
7325;DHT22;3703;48.016;7.802;2023-04-24T11:24:50;13.10;99.90
7325;DHT22;3703;48.016;7.802;2023-04-24T11:27:40;13.20;99.90
7325;DHT22;3703;48.016;7.802;2023-04-24T11:30:31;13.40;99.90
7325;DHT22;3703;48.016;7.802;2023-04-24T11:33:20;13.10;99.90
7325;DHT22;3703;48.016;7.802;2023-04-24T11:36:07;12.80;99.90
7325;DHT22;3703;48.016;7.802;2023-04-24T11:38:55;12.90;99.90
7325;DHT22;3703;48.016;7.802;2023-04-24T11:41:44;12.80;99.90
7325;DHT22;3703;48.016;7.802;2023-04-24T11:44:31;13.00;99.90
7325;DHT22;3703;48.016;7.802;2023-04-24T11:47:27;13.30;99.90
7325;DHT22;3703;48.016;7.802;2023-04-24T11:50:17;13.30;99.90
7325;DHT22;3703;48.016;7.802;2023-04-24T11:53:05;13.40;99.90
7325;DHT22;3703;48.016;7.802;2023-04-24T11:55:52;13.70;99.90
7325;DHT22;3703;48.016;7.802;2023-04-24T11:58:40;13.30;99.90
7325;DHT22;3703;48.016;7.802;2023-04-24T12:01:28;13.40;99.90
7325;DHT22;3703;48.016;7.802;2023-04-24T12:04:18;13.30;99.90
7325;DHT22;3703;48.016;7.802;2023-04-24T12:07:06;13.40;99.90
7325;DHT22;3703;48.016;7.802;2023-04-24T12:09:58;13.50;99.90
7325;DHT22;3703;48.016;7.802;2023-04-24T12:12:46;13.40;99.90
7325;DHT22;3703;48.016;7.802;2023-04-24T12:15:40;13.50;99.90
7325;DHT22;3703;48.016;7.802;2023-04-24T12:18:27;13.30;99.90
7325;DHT22;3703;48.016;7.802;2023-04-24T12:21:17;13.30;99.90
7325;DHT22;3703;48.016;7.802;2023-04-24T12:24:06;13.40;99.90
7325;DHT22;3703;48.016;7.802;2023-04-24T12:26:54;13.60;99.90
7325;DHT22;3703;48.016;7.802;2023-04-24T12:29:51;13.70;99.90
7325;DHT22;3703;48.016;7.802;2023-04-24T12:32:44;14.20;99.90
7325;DHT22;3703;48.016;7.802;2023-04-24T12:35:33;14.20;99.90
7325;DHT22;3703;48.016;7.802;2023-04-24T12:38:25;14.10;99.90
7325;DHT22;3703;48.016;7.802;2023-04-24T12:41:14;14.50;99.90
7325;DHT22;3703;48.016;7.802;2023-04-24T12:44:01;14.80;99.90
7325;DHT22;3703;48.016;7.802;2023-04-24T12:46:49;15.30;99.90
7325;DHT22;3703;48.016;7.802;2023-04-24T12:49:36;15.50;99.90
7325;DHT22;3703;48.016;7.802;2023-04-24T12:52:25;15.70;99.90
7325;DHT22;3703;48.016;7.802;2023-04-24T12:55:14;16.60;99.90
7325;DHT22;3703;48.016;7.802;2023-04-24T12:58:02;17.20;99.90
7325;DHT22;3703;48.016;7.802;2023-04-24T13:00:49;16.50;99.90
7325;DHT22;3703;48.016;7.802;2023-04-24T13:03:37;16.30;99.90
7325;DHT22;3703;48.016;7.802;2023-04-24T13:06:24;16.40;99.90
7325;DHT22;3703;48.016;7.802;2023-04-24T13:09:12;16.10;99.90
7325;DHT22;3703;48.016;7.802;2023-04-24T13:12:01;15.50;99.90
7325;DHT22;3703;48.016;7.802;2023-04-24T13:14:51;15.30;99.90
7325;DHT22;3703;48.016;7.802;2023-04-24T13:17:39;15.40;99.90
7325;DHT22;3703;48.016;7.802;2023-04-24T13:20:26;16.10;99.90
7325;DHT22;3703;48.016;7.802;2023-04-24T13:23:14;16.00;99.90
7325;DHT22;3703;48.016;7.802;2023-04-24T13:26:02;15.20;99.90
7325;DHT22;3703;48.016;7.802;2023-04-24T13:28:50;15.00;99.90
7325;DHT22;3703;48.016;7.802;2023-04-24T13:31:38;15.30;99.90
7325;DHT22;3703;48.016;7.802;2023-04-24T13:34:26;16.30;99.90
7325;DHT22;3703;48.016;7.802;2023-04-24T13:37:13;16.80;99.90
7325;DHT22;3703;48.016;7.802;2023-04-24T13:40:01;16.40;99.90
7325;DHT22;3703;48.016;7.802;2023-04-24T13:42:50;15.50;99.90
7325;DHT22;3703;48.016;7.802;2023-04-24T13:45:39;15.40;99.90
7325;DHT22;3703;48.016;7.802;2023-04-24T13:48:26;15.50;99.90
7325;DHT22;3703;48.016;7.802;2023-04-24T13:51:14;15.70;99.90
7325;DHT22;3703;48.016;7.802;2023-04-24T13:54:01;15.60;99.90
7325;DHT22;3703;48.016;7.802;2023-04-24T13:56:49;15.20;99.90
7325;DHT22;3703;48.016;7.802;2023-04-24T13:59:37;15.10;99.90
7325;DHT22;3703;48.016;7.802;2023-04-24T14:02:27;15.50;99.90
7325;DHT22;3703;48.016;7.802;2023-04-24T14:05:14;15.20;99.90
7325;DHT22;3703;48.016;7.802;2023-04-24T14:08:02;15.00;99.90
7325;DHT22;3703;48.016;7.802;2023-04-24T14:10:50;15.10;99.90
7325;DHT22;3703;48.016;7.802;2023-04-24T14:13:38;15.10;99.90
7325;DHT22;3703;48.016;7.802;2023-04-24T14:16:26;15.00;99.90
7325;DHT22;3703;48.016;7.802;2023-04-24T14:19:14;15.30;99.90
7325;DHT22;3703;48.016;7.802;2023-04-24T14:22:02;15.00;99.90
7325;DHT22;3703;48.016;7.802;2023-04-24T14:24:49;14.70;99.90
7325;DHT22;3703;48.016;7.802;2023-04-24T14:27:37;14.50;99.90
7325;DHT22;3703;48.016;7.802;2023-04-24T14:30:26;14.20;99.90
7325;DHT22;3703;48.016;7.802;2023-04-24T14:33:13;14.00;99.90
7325;DHT22;3703;48.016;7.802;2023-04-24T14:36:03;13.90;99.90
7325;DHT22;3703;48.016;7.802;2023-04-24T14:38:51;13.70;99.90
7325;DHT22;3703;48.016;7.802;2023-04-24T14:41:39;13.60;99.90
7325;DHT22;3703;48.016;7.802;2023-04-24T14:44:26;13.90;99.90
7325;DHT22;3703;48.016;7.802;2023-04-24T14:47:14;13.90;99.90
7325;DHT22;3703;48.016;7.802;2023-04-24T14:50:03;14.20;99.90
7325;DHT22;3703;48.016;7.802;2023-04-24T14:52:53;14.20;99.90
7325;DHT22;3703;48.016;7.802;2023-04-24T14:55:43;14.30;99.90
7325;DHT22;3703;48.016;7.802;2023-04-24T14:58:30;14.20;99.90
7325;DHT22;3703;48.016;7.802;2023-04-24T15:01:18;14.30;99.90
7325;DHT22;3703;48.016;7.802;2023-04-24T15:04:06;14.40;99.90
7325;DHT22;3703;48.016;7.802;2023-04-24T15:06:54;14.50;99.90
7325;DHT22;3703;48.016;7.802;2023-04-24T15:09:44;14.60;99.90
7325;DHT22;3703;48.016;7.802;2023-04-24T15:12:33;14.10;99.90
7325;DHT22;3703;48.016;7.802;2023-04-24T15:15:21;14.20;99.90
7325;DHT22;3703;48.016;7.802;2023-04-24T15:18:09;14.00;99.90
7325;DHT22;3703;48.016;7.802;2023-04-24T15:20:57;14.10;99.90
7325;DHT22;3703;48.016;7.802;2023-04-24T15:23:45;14.10;99.90
7325;DHT22;3703;48.016;7.802;2023-04-24T15:26:34;14.00;99.90
7325;DHT22;3703;48.016;7.802;2023-04-24T15:29:21;13.90;99.90
7325;DHT22;3703;48.016;7.802;2023-04-24T15:32:09;13.80;99.90
7325;DHT22;3703;48.016;7.802;2023-04-24T15:34:56;13.70;99.90
7325;DHT22;3703;48.016;7.802;2023-04-24T15:37:44;13.70;99.90
7325;DHT22;3703;48.016;7.802;2023-04-24T15:40:32;14.00;99.90
7325;DHT22;3703;48.016;7.802;2023-04-24T15:43:21;14.20;99.90
7325;DHT22;3703;48.016;7.802;2023-04-24T15:46:09;14.20;99.90
7325;DHT22;3703;48.016;7.802;2023-04-24T15:48:57;14.00;99.90
7325;DHT22;3703;48.016;7.802;2023-04-24T15:51:46;14.10;99.90
7325;DHT22;3703;48.016;7.802;2023-04-24T15:54:33;14.30;99.90
7325;DHT22;3703;48.016;7.802;2023-04-24T15:57:20;14.10;99.90
7325;DHT22;3703;48.016;7.802;2023-04-24T16:00:11;14.00;99.90
7325;DHT22;3703;48.016;7.802;2023-04-24T16:02:59;13.70;99.90
7325;DHT22;3703;48.016;7.802;2023-04-24T16:05:47;13.60;99.90
7325;DHT22;3703;48.016;7.802;2023-04-24T16:08:34;13.60;99.90
7325;DHT22;3703;48.016;7.802;2023-04-24T16:11:22;13.60;99.90
7325;DHT22;3703;48.016;7.802;2023-04-24T16:14:09;13.50;99.90
7325;DHT22;3703;48.016;7.802;2023-04-24T16:16:59;13.60;99.90
7325;DHT22;3703;48.016;7.802;2023-04-24T16:19:46;13.70;99.90
7325;DHT22;3703;48.016;7.802;2023-04-24T16:22:34;13.50;99.90
7325;DHT22;3703;48.016;7.802;2023-04-24T16:25:22;13.30;99.90
7325;DHT22;3703;48.016;7.802;2023-04-24T16:28:09;13.30;99.90
7325;DHT22;3703;48.016;7.802;2023-04-24T16:30:57;13.50;99.90
7325;DHT22;3703;48.016;7.802;2023-04-24T16:33:46;13.70;99.90
7325;DHT22;3703;48.016;7.802;2023-04-24T16:36:34;13.70;99.90
7325;DHT22;3703;48.016;7.802;2023-04-24T16:39:22;13.60;99.90
7325;DHT22;3703;48.016;7.802;2023-04-24T16:42:11;13.50;99.90
7325;DHT22;3703;48.016;7.802;2023-04-24T16:44:59;14.60;99.90
7325;DHT22;3703;48.016;7.802;2023-04-24T16:47:46;13.60;99.90
7325;DHT22;3703;48.016;7.802;2023-04-24T16:50:35;13.70;99.90
7325;DHT22;3703;48.016;7.802;2023-04-24T16:53:23;13.50;99.90
7325;DHT22;3703;48.016;7.802;2023-04-24T16:56:11;13.90;99.90
7325;DHT22;3703;48.016;7.802;2023-04-24T16:58:59;13.90;99.90
7325;DHT22;3703;48.016;7.802;2023-04-24T17:01:46;13.80;99.90
7325;DHT22;3703;48.016;7.802;2023-04-24T17:04:34;13.60;99.90
7325;DHT22;3703;48.016;7.802;2023-04-24T17:07:23;13.60;99.90
7325;DHT22;3703;48.016;7.802;2023-04-24T17:10:10;13.60;99.90
7325;DHT22;3703;48.016;7.802;2023-04-24T17:12:58;13.60;99.90
7325;DHT22;3703;48.016;7.802;2023-04-24T17:15:45;13.60;99.90
7325;DHT22;3703;48.016;7.802;2023-04-24T17:18:33;13.60;99.90
7325;DHT22;3703;48.016;7.802;2023-04-24T17:21:21;13.70;99.90
7325;DHT22;3703;48.016;7.802;2023-04-24T17:24:09;13.90;99.90
7325;DHT22;3703;48.016;7.802;2023-04-24T17:26:57;14.90;99.90
7325;DHT22;3703;48.016;7.802;2023-04-24T17:29:45;13.90;99.90
7325;DHT22;3703;48.016;7.802;2023-04-24T17:32:34;13.90;99.90
7325;DHT22;3703;48.016;7.802;2023-04-24T17:35:22;13.80;99.90
7325;DHT22;3703;48.016;7.802;2023-04-24T17:38:09;13.50;99.90
7325;DHT22;3703;48.016;7.802;2023-04-24T17:40:59;13.40;99.90
7325;DHT22;3703;48.016;7.802;2023-04-24T17:43:46;13.30;99.90
7325;DHT22;3703;48.016;7.802;2023-04-24T17:46:34;13.40;99.90
7325;DHT22;3703;48.016;7.802;2023-04-24T17:49:22;13.50;99.90
7325;DHT22;3703;48.016;7.802;2023-04-24T17:52:10;13.50;99.90
7325;DHT22;3703;48.016;7.802;2023-04-24T17:54:58;13.50;99.90
7325;DHT22;3703;48.016;7.802;2023-04-24T17:57:47;13.40;99.90
7325;DHT22;3703;48.016;7.802;2023-04-24T18:00:37;13.20;99.90
7325;DHT22;3703;48.016;7.802;2023-04-24T18:03:25;13.20;99.90
7325;DHT22;3703;48.016;7.802;2023-04-24T18:06:12;13.40;99.90
7325;DHT22;3703;48.016;7.802;2023-04-24T18:09:02;13.90;99.90
7325;DHT22;3703;48.016;7.802;2023-04-24T18:11:49;13.30;99.90
7325;DHT22;3703;48.016;7.802;2023-04-24T18:14:38;13.50;99.90
7325;DHT22;3703;48.016;7.802;2023-04-24T18:17:26;13.50;99.90
7325;DHT22;3703;48.016;7.802;2023-04-24T18:20:15;13.20;99.90
7325;DHT22;3703;48.016;7.802;2023-04-24T18:23:03;13.20;99.90
7325;DHT22;3703;48.016;7.802;2023-04-24T18:25:51;13.00;99.90
7325;DHT22;3703;48.016;7.802;2023-04-24T18:28:39;13.00;99.90
7325;DHT22;3703;48.016;7.802;2023-04-24T18:31:28;13.00;99.90
7325;DHT22;3703;48.016;7.802;2023-04-24T18:34:17;12.90;99.90
7325;DHT22;3703;48.016;7.802;2023-04-24T18:37:04;12.90;99.90